Time;durP1;ratioP1;P1;durP2;ratioP2;P2;SDS_P1;SDS_P2;PMS_P1;PMS_P2;Temp;Humidity;BMP_temperature;BMP_pressure;BME280_temperature;BME280_humidity;BME280_pressure;Samples;Min_cycle;Max_cycle;Signal;HPM_P1;HPM_P2
2023/07/22 00:02:29;;;;;;;;;;;;;;;17.76;63.03;97880.75;5027023;28;19929;-66
2023/07/22 00:05:23;;;;;;;;;;;;;;;17.72;63.06;97885.38;5019215;28;20023;-65
2023/07/22 00:08:12;;;;;;;;;;;;;;;17.67;63.27;97882.88;5022573;28;20453;-65
2023/07/22 00:11:01;;;;;;;;;;;;;;;17.49;63.86;97881.69;5021603;28;19925;-65
2023/07/22 00:13:49;;;;;;;;;;;;;;;17.53;63.60;97883.38;5017530;28;20019;-63
2023/07/22 00:16:38;;;;;;;;;;;;;;;17.51;63.66;97885.66;5024331;28;19929;-64
2023/07/22 00:19:26;;;;;;;;;;;;;;;17.44;63.88;97880.00;5023141;28;19935;-64
2023/07/22 00:22:17;;;;;;;;;;;;;;;17.48;63.79;97880.09;5017590;28;19925;-64
2023/07/22 00:25:05;;;;;;;;;;;;;;;17.43;63.65;97875.66;5028471;28;20004;-64
2023/07/22 00:27:53;;;;;;;;;;;;;;;17.39;63.53;97871.25;5019457;28;20685;-64
2023/07/22 00:30:42;;;;;;;;;;;;;;;17.46;63.72;97871.41;5031943;28;19929;-64
2023/07/22 00:33:31;;;;;;;;;;;;;;;17.39;63.85;97877.53;5020191;28;20562;-64
2023/07/22 00:36:20;;;;;;;;;;;;;;;17.34;63.90;97874.25;5021183;28;20582;-68
2023/07/22 00:39:08;;;;;;;;;;;;;;;17.30;63.88;97871.44;5018918;28;19929;-64
2023/07/22 00:41:56;;;;;;;;;;;;;;;17.37;63.94;97873.56;5030590;28;19931;-65
2023/07/22 00:44:45;;;;;;;;;;;;;;;17.36;63.99;97866.47;5021882;28;19932;-64
2023/07/22 00:47:33;;;;;;;;;;;;;;;17.35;63.94;97864.88;5016261;28;19929;-63
2023/07/22 00:50:23;;;;;;;;;;;;;;;17.29;63.78;97856.91;5018042;28;19926;-64
2023/07/22 00:53:11;;;;;;;;;;;;;;;17.35;63.96;97859.38;5027348;28;19929;-64
2023/07/22 00:55:59;;;;;;;;;;;;;;;17.29;64.22;97864.34;5021967;28;19932;-64
2023/07/22 00:58:47;;;;;;;;;;;;;;;17.25;64.39;97861.50;5023110;28;19932;-64
2023/07/22 01:01:36;;;;;;;;;;;;;;;17.33;64.20;97856.19;5020504;28;19925;-63
2023/07/22 01:04:24;;;;;;;;;;;;;;;17.29;64.25;97862.41;5023733;28;19933;-63
2023/07/22 01:07:13;;;;;;;;;;;;;;;17.27;64.27;97855.69;5021147;28;19936;-64
2023/07/22 01:10:03;;;;;;;;;;;;;;;17.33;64.23;97851.50;5023617;28;20009;-63
2023/07/22 01:12:51;;;;;;;;;;;;;;;17.33;64.13;97850.72;5026591;28;19929;-65
2023/07/22 01:15:39;;;;;;;;;;;;;;;17.29;64.37;97856.91;5018611;28;19929;-63
2023/07/22 01:18:27;;;;;;;;;;;;;;;17.26;64.53;97852.13;5029398;28;19926;-64
2023/07/22 01:21:15;;;;;;;;;;;;;;;17.23;64.74;97857.53;5029549;28;19932;-64
2023/07/22 01:24:05;;;;;;;;;;;;;;;17.21;64.67;97855.16;5026948;28;19936;-64
2023/07/22 01:26:53;;;;;;;;;;;;;;;17.15;64.79;97862.06;5029570;28;19933;-65
2023/07/22 01:29:42;;;;;;;;;;;;;;;17.07;64.89;97852.06;5030224;28;20382;-64
2023/07/22 01:32:30;;;;;;;;;;;;;;;17.15;64.51;97853.84;5034347;28;19932;-63
2023/07/22 01:35:19;;;;;;;;;;;;;;;17.08;64.74;97861.88;5025152;28;20573;-63
2023/07/22 01:38:08;;;;;;;;;;;;;;;17.05;64.84;97857.13;5028707;28;19926;-64
2023/07/22 01:40:58;;;;;;;;;;;;;;;16.99;65.14;97850.28;5022521;28;19933;-64
2023/07/22 01:43:48;;;;;;;;;;;;;;;16.93;65.16;97849.75;5027889;28;19925;-63
2023/07/22 01:46:37;;;;;;;;;;;;;;;16.92;65.32;97847.38;5022480;28;19979;-66
2023/07/22 01:49:26;;;;;;;;;;;;;;;16.94;65.17;97845.09;5022122;28;19929;-66
2023/07/22 01:52:15;;;;;;;;;;;;;;;16.85;65.10;97837.03;5025564;28;19968;-64
2023/07/22 01:55:05;;;;;;;;;;;;;;;16.80;65.12;97840.03;5025342;28;19933;-67
2023/07/22 01:57:55;;;;;;;;;;;;;;;16.79;64.62;97840.38;5020960;28;19999;-66
2023/07/22 02:00:44;;;;;;;;;;;;;;;16.82;64.52;97839.66;5019954;28;19964;-63
2023/07/22 02:03:33;;;;;;;;;;;;;;;16.75;65.17;97843.81;5019952;28;20023;-63
2023/07/22 02:06:24;;;;;;;;;;;;;;;16.79;64.65;97838.44;5021485;28;19974;-64
2023/07/22 02:09:13;;;;;;;;;;;;;;;16.72;64.97;97838.25;5021363;28;19929;-63
2023/07/22 02:12:02;;;;;;;;;;;;;;;16.73;64.73;97840.66;5021520;28;19929;-61
2023/07/22 02:14:51;;;;;;;;;;;;;;;16.79;64.45;97846.66;5032625;28;19934;-60
2023/07/22 02:17:40;;;;;;;;;;;;;;;16.80;64.40;97852.94;5026991;28;20384;-61
2023/07/22 02:20:28;;;;;;;;;;;;;;;16.75;64.43;97848.53;5022901;28;19925;-62
2023/07/22 02:23:19;;;;;;;;;;;;;;;16.79;64.30;97854.09;5024380;28;19925;-62
2023/07/22 02:26:07;;;;;;;;;;;;;;;16.81;64.29;97857.28;5018304;28;19936;-63
2023/07/22 02:28:55;;;;;;;;;;;;;;;16.75;64.44;97871.25;5021830;28;19929;-63
2023/07/22 02:31:46;;;;;;;;;;;;;;;16.77;64.11;97857.19;5021070;28;19947;-64
2023/07/22 02:34:34;;;;;;;;;;;;;;;16.61;64.55;97859.88;5025232;28;19932;-62
2023/07/22 02:37:22;;;;;;;;;;;;;;;16.63;65.03;97868.56;5022635;28;19929;-62
2023/07/22 02:40:11;;;;;;;;;;;;;;;16.68;64.55;97870.25;5020565;28;19925;-62
2023/07/22 02:42:59;;;;;;;;;;;;;;;16.72;64.38;97863.75;5021451;28;20547;-62
2023/07/22 02:45:47;;;;;;;;;;;;;;;16.68;64.32;97859.28;5017163;28;20036;-63
2023/07/22 02:48:39;;;;;;;;;;;;;;;16.66;64.36;97856.09;5017074;28;20401;-63
2023/07/22 02:51:27;;;;;;;;;;;;;;;16.60;64.70;97860.25;5028481;28;19929;-63
2023/07/22 02:54:15;;;;;;;;;;;;;;;16.59;64.72;97859.44;5020824;28;19951;-63
2023/07/22 02:57:04;;;;;;;;;;;;;;;16.57;64.68;97869.97;5020148;28;19925;-63
2023/07/22 02:59:52;;;;;;;;;;;;;;;16.52;64.93;97870.25;5019818;28;20314;-62
2023/07/22 03:02:40;;;;;;;;;;;;;;;16.50;64.84;97875.25;5021057;28;19980;-62
2023/07/22 03:05:30;;;;;;;;;;;;;;;16.47;64.84;97871.28;5020415;28;20471;-62
2023/07/22 03:08:18;;;;;;;;;;;;;;;16.45;64.96;97872.78;5018964;28;19926;-62
2023/07/22 03:11:07;;;;;;;;;;;;;;;16.38;65.46;97883.56;5022616;28;20450;-62
2023/07/22 03:13:55;;;;;;;;;;;;;;;16.43;65.25;97880.56;5021113;28;19925;-62
2023/07/22 03:16:44;;;;;;;;;;;;;;;16.40;65.24;97886.72;5015410;28;20298;-63
2023/07/22 03:19:33;;;;;;;;;;;;;;;16.38;65.43;97883.56;5021601;28;19925;-62
2023/07/22 03:22:22;;;;;;;;;;;;;;;16.37;65.41;97876.47;5020120;28;20013;-63
2023/07/22 03:25:11;;;;;;;;;;;;;;;16.39;65.32;97890.63;5018865;28;19933;-62
2023/07/22 03:27:59;;;;;;;;;;;;;;;16.38;65.50;97886.28;5023718;28;19940;-63
2023/07/22 03:30:49;;;;;;;;;;;;;;;16.41;65.52;97888.34;5020521;28;20012;-64
2023/07/22 03:33:38;;;;;;;;;;;;;;;16.39;65.45;97891.41;5033697;28;19940;-63
2023/07/22 03:36:26;;;;;;;;;;;;;;;16.31;65.91;97897.06;5022114;28;20374;-62
2023/07/22 03:39:16;;;;;;;;;;;;;;;16.21;66.33;97898.38;5023060;28;20303;-63
2023/07/22 03:42:04;;;;;;;;;;;;;;;16.18;66.27;97913.53;5016080;28;19925;-62
2023/07/22 03:44:53;;;;;;;;;;;;;;;16.08;66.47;97914.03;5022014;28;19929;-63
2023/07/22 03:47:41;;;;;;;;;;;;;;;16.03;66.52;97911.53;5023011;28;19933;-64
2023/07/22 03:50:29;;;;;;;;;;;;;;;16.01;66.38;97918.53;5017549;28;19932;-62
2023/07/22 03:53:17;;;;;;;;;;;;;;;15.93;66.52;97917.53;5021658;28;19925;-62
2023/07/22 03:56:07;;;;;;;;;;;;;;;15.89;66.37;97925.63;5023380;28;19939;-63
2023/07/22 03:58:55;;;;;;;;;;;;;;;15.97;66.13;97929.38;5021388;28;19936;-63
2023/07/22 04:01:46;;;;;;;;;;;;;;;15.99;66.38;97927.09;5022376;28;20302;-64
2023/07/22 04:04:34;;;;;;;;;;;;;;;15.88;66.82;97924.03;5024479;28;19929;-62
2023/07/22 04:07:23;;;;;;;;;;;;;;;15.99;66.56;97927.09;5020565;28;19929;-63
2023/07/22 04:10:11;;;;;;;;;;;;;;;15.92;66.59;97918.66;5022711;28;19933;-64
2023/07/22 04:13:00;;;;;;;;;;;;;;;15.85;66.69;97926.66;5019975;28;19929;-64
2023/07/22 04:15:49;;;;;;;;;;;;;;;15.76;66.39;97915.03;5021491;28;19925;-62
2023/07/22 04:18:37;;;;;;;;;;;;;;;15.57;66.82;97921.06;5024427;28;19929;-63
2023/07/22 04:21:27;;;;;;;;;;;;;;;15.51;66.95;97922.47;5023435;28;20877;-62
2023/07/22 04:24:15;;;;;;;;;;;;;;;15.63;66.78;97930.69;5018316;28;19929;-63
2023/07/22 04:27:04;;;;;;;;;;;;;;;15.46;67.13;97926.22;5024763;28;20306;-62
2023/07/22 04:29:54;;;;;;;;;;;;;;;15.43;67.27;97932.38;5019002;28;20294;-63
2023/07/22 04:32:42;;;;;;;;;;;;;;;15.43;67.29;97938.63;5026372;28;19952;-62
2023/07/22 04:35:32;;;;;;;;;;;;;;;15.43;67.49;97937.84;5024620;28;19925;-63
2023/07/22 04:38:20;;;;;;;;;;;;;;;15.46;67.38;97937.97;5025474;28;19939;-63
2023/07/22 04:41:08;;;;;;;;;;;;;;;15.46;67.46;97942.66;5025350;28;19948;-65
2023/07/22 04:43:56;;;;;;;;;;;;;;;15.57;67.32;97932.81;5031410;28;19975;-62
2023/07/22 04:46:45;;;;;;;;;;;;;;;15.68;66.95;97933.19;5019747;28;19991;-62
2023/07/22 04:49:33;;;;;;;;;;;;;;;15.71;66.90;97930.56;5026508;28;19925;-63
2023/07/22 04:52:22;;;;;;;;;;;;;;;15.77;66.68;97931.13;5020838;28;19925;-65
2023/07/22 04:55:10;;;;;;;;;;;;;;;15.78;66.46;97927.25;5034707;28;19929;-62
2023/07/22 04:57:58;;;;;;;;;;;;;;;15.70;66.72;97926.22;5024617;28;19925;-62
2023/07/22 05:00:49;;;;;;;;;;;;;;;15.75;66.66;97927.94;5027653;28;19964;-62
2023/07/22 05:03:40;;;;;;;;;;;;;;;15.80;66.82;97937.84;5024217;28;19940;-62
2023/07/22 05:06:29;;;;;;;;;;;;;;;15.88;66.51;97947.91;5028120;28;19968;-62
2023/07/22 05:09:17;;;;;;;;;;;;;;;15.91;66.46;97955.41;5023128;28;20485;-62
2023/07/22 05:12:06;;;;;;;;;;;;;;;15.94;66.29;97957.47;5016898;28;21639;-62
2023/07/22 05:14:54;;;;;;;;;;;;;;;15.95;65.99;97957.13;5023251;28;19929;-63
2023/07/22 05:17:42;;;;;;;;;;;;;;;16.05;66.12;97958.59;5023615;28;19929;-62
2023/07/22 05:20:31;;;;;;;;;;;;;;;16.10;66.11;97963.84;5023125;28;20400;-62
2023/07/22 05:23:20;;;;;;;;;;;;;;;16.14;66.12;97951.03;5027169;28;19929;-64
2023/07/22 05:26:08;;;;;;;;;;;;;;;16.20;66.09;97960.63;5023731;28;20970;-63
2023/07/22 05:28:56;;;;;;;;;;;;;;;16.20;65.73;97965.28;5009244;28;19932;-63
2023/07/22 05:31:44;;;;;;;;;;;;;;;16.28;65.68;97964.34;5019550;28;20010;-62
2023/07/22 05:34:34;;;;;;;;;;;;;;;16.34;65.64;97956.69;5020621;28;19932;-65
2023/07/22 05:37:26;;;;;;;;;;;;;;;16.33;65.63;97961.38;5023394;28;19932;-63
2023/07/22 05:40:14;;;;;;;;;;;;;;;16.42;65.65;97962.03;5025583;28;20314;-63
2023/07/22 05:43:02;;;;;;;;;;;;;;;16.42;65.46;97958.50;5023856;28;19960;-63
2023/07/22 05:45:50;;;;;;;;;;;;;;;16.43;65.63;97951.84;5023411;28;19936;-62
2023/07/22 05:48:39;;;;;;;;;;;;;;;16.46;65.45;97962.13;5021285;28;19937;-64
2023/07/22 05:51:27;;;;;;;;;;;;;;;16.47;65.38;97963.72;5019393;28;19933;-63
2023/07/22 05:54:16;;;;;;;;;;;;;;;16.49;65.41;97964.16;5024797;28;20023;-62
2023/07/22 05:57:05;;;;;;;;;;;;;;;16.52;65.67;97971.72;5027867;28;19932;-62
2023/07/22 05:59:53;;;;;;;;;;;;;;;16.46;65.54;97970.38;5021565;28;19936;-65
2023/07/22 06:02:59;;;;;;;;;;;;;;;16.45;65.44;97968.75;5023529;28;20094;-64
2023/07/22 06:05:47;;;;;;;;;;;;;;;16.40;65.66;97975.28;5020619;28;20349;-64
2023/07/22 06:08:35;;;;;;;;;;;;;;;16.45;65.54;97977.75;5024882;28;19947;-65
2023/07/22 06:11:25;;;;;;;;;;;;;;;16.44;65.76;97986.34;5024987;28;19929;-64
2023/07/22 06:14:13;;;;;;;;;;;;;;;16.44;65.71;97991.84;5022114;28;20287;-66
2023/07/22 06:17:02;;;;;;;;;;;;;;;16.40;66.02;97988.19;5025017;28;20294;-64
2023/07/22 06:19:50;;;;;;;;;;;;;;;16.42;65.92;97994.13;5019296;28;19925;-64
2023/07/22 06:22:40;;;;;;;;;;;;;;;16.46;66.16;98001.31;5023979;28;19933;-64
2023/07/22 06:25:29;;;;;;;;;;;;;;;16.57;65.88;98004.38;5025779;28;19933;-64
2023/07/22 06:28:18;;;;;;;;;;;;;;;16.54;65.25;98002.31;5020458;28;19925;-66
2023/07/22 06:31:06;;;;;;;;;;;;;;;16.60;65.24;98013.84;5021748;28;20398;-65
2023/07/22 06:33:54;;;;;;;;;;;;;;;16.66;65.15;98020.66;5022243;28;19933;-64
2023/07/22 06:36:43;;;;;;;;;;;;;;;16.67;64.86;98019.50;5022025;28;20075;-65
2023/07/22 06:39:31;;;;;;;;;;;;;;;16.69;64.81;98014.50;5023356;28;20060;-64
2023/07/22 06:42:25;;;;;;;;;;;;;;;16.61;64.80;98021.72;5019719;28;19932;-64
2023/07/22 06:45:15;;;;;;;;;;;;;;;16.62;64.61;98022.50;5022245;28;19939;-64
2023/07/22 06:48:03;;;;;;;;;;;;;;;16.67;64.61;98017.59;5021897;28;19964;-65
2023/07/22 06:50:52;;;;;;;;;;;;;;;16.70;64.40;98021.56;5023728;28;19925;-64
2023/07/22 06:53:40;;;;;;;;;;;;;;;16.67;64.20;98028.56;5009487;28;19926;-64
2023/07/22 06:56:28;;;;;;;;;;;;;;;16.64;64.29;98020.22;5016741;28;19933;-64
2023/07/22 06:59:17;;;;;;;;;;;;;;;16.65;64.30;98019.06;5014018;28;19931;-64
2023/07/22 07:02:06;;;;;;;;;;;;;;;16.62;64.47;98017.84;5017213;28;19925;-66
2023/07/22 07:04:57;;;;;;;;;;;;;;;16.66;64.32;98017.91;5019943;28;19932;-67
2023/07/22 07:07:45;;;;;;;;;;;;;;;16.70;64.73;98016.88;5025592;28;19975;-67
2023/07/22 07:10:37;;;;;;;;;;;;;;;16.81;65.22;98030.13;5023562;28;19925;-65
2023/07/22 07:13:25;;;;;;;;;;;;;;;16.74;65.18;98026.06;5019344;28;19987;-67
2023/07/22 07:16:23;;;;;;;;;;;;;;;16.55;66.13;98023.09;5036330;28;19929;-65
2023/07/22 07:19:13;;;;;;;;;;;;;;;16.61;65.94;98035.41;5013715;28;19936;-65
2023/07/22 07:22:02;;;;;;;;;;;;;;;16.59;65.98;98037.72;5025159;28;20026;-66
2023/07/22 07:24:50;;;;;;;;;;;;;;;16.66;65.45;98037.91;5016830;28;19929;-67
2023/07/22 07:27:38;;;;;;;;;;;;;;;16.62;64.91;98039.78;5026185;28;20056;-66
2023/07/22 07:30:26;;;;;;;;;;;;;;;16.70;64.29;98044.31;5015009;28;20463;-66
2023/07/22 07:33:15;;;;;;;;;;;;;;;16.73;62.31;98042.88;5019049;28;19933;-66
2023/07/22 07:36:04;;;;;;;;;;;;;;;16.89;62.16;98046.47;5017018;28;20612;-67
2023/07/22 07:38:53;;;;;;;;;;;;;;;16.94;61.21;98046.22;5021907;28;19926;-65
2023/07/22 07:41:42;;;;;;;;;;;;;;;16.93;61.00;98063.00;5018001;28;19937;-65
2023/07/22 07:44:30;;;;;;;;;;;;;;;16.93;61.03;98057.53;5010256;28;19955;-65
2023/07/22 07:47:18;;;;;;;;;;;;;;;16.98;62.11;98058.06;5021511;28;20445;-65
2023/07/22 07:50:07;;;;;;;;;;;;;;;17.01;62.78;98059.31;5018527;28;19932;-65
2023/07/22 07:52:56;;;;;;;;;;;;;;;17.03;62.99;98051.53;5023759;28;19932;-70
2023/07/22 07:55:45;;;;;;;;;;;;;;;17.11;62.56;98064.31;5020309;28;19930;-67
2023/07/22 07:58:33;;;;;;;;;;;;;;;17.22;62.54;98064.59;5019927;28;19948;-65
2023/07/22 08:01:21;;;;;;;;;;;;;;;17.26;62.13;98054.53;5021146;28;19936;-65
2023/07/22 08:04:10;;;;;;;;;;;;;;;17.24;61.59;98057.59;5020002;28;20063;-67
2023/07/22 08:06:58;;;;;;;;;;;;;;;17.24;61.46;98056.81;5034017;28;20565;-65
2023/07/22 08:09:50;;;;;;;;;;;;;;;17.21;61.58;98058.31;5029070;28;19948;-64
2023/07/22 08:12:38;;;;;;;;;;;;;;;17.27;61.81;98056.13;5033027;28;19932;-64
2023/07/22 08:15:27;;;;;;;;;;;;;;;17.34;61.83;98055.50;5023727;28;19933;-63
2023/07/22 08:18:15;;;;;;;;;;;;;;;17.38;60.67;98051.69;5026174;28;19929;-66
2023/07/22 08:21:04;;;;;;;;;;;;;;;17.55;61.42;98053.31;5026929;28;19926;-66
2023/07/22 08:23:52;;;;;;;;;;;;;;;17.61;61.52;98060.13;5026465;28;19932;-64
2023/07/22 08:26:42;;;;;;;;;;;;;;;17.74;61.20;98063.63;5015872;28;19937;-63
2023/07/22 08:29:30;;;;;;;;;;;;;;;17.74;60.28;98058.94;5027402;28;19944;-66
2023/07/22 08:32:18;;;;;;;;;;;;;;;17.79;60.03;98053.19;5027375;28;20287;-64
2023/07/22 08:35:08;;;;;;;;;;;;;;;17.84;59.35;98045.78;5022750;28;20302;-64
2023/07/22 08:37:57;;;;;;;;;;;;;;;17.90;59.19;98047.94;5031859;28;19933;-64
2023/07/22 08:40:45;;;;;;;;;;;;;;;17.89;58.82;98042.78;5024209;28;20313;-64
2023/07/22 08:43:35;;;;;;;;;;;;;;;17.92;58.74;98037.38;5020740;28;19990;-65
2023/07/22 08:46:24;;;;;;;;;;;;;;;17.97;59.30;98033.56;5025590;28;19929;-65
2023/07/22 08:49:12;;;;;;;;;;;;;;;18.11;60.05;98039.41;5021597;28;19988;-66
2023/07/22 08:52:00;;;;;;;;;;;;;;;18.17;58.45;98037.97;5029033;28;20378;-64
2023/07/22 08:54:49;;;;;;;;;;;;;;;18.26;59.23;98041.28;5020737;28;19932;-64
2023/07/22 08:57:37;;;;;;;;;;;;;;;18.37;58.44;98046.25;5034127;28;19936;-64
2023/07/22 09:00:26;;;;;;;;;;;;;;;18.35;57.87;98040.31;5026477;28;19936;-65
2023/07/22 09:03:15;;;;;;;;;;;;;;;18.52;56.61;98042.66;5025612;28;20448;-64
2023/07/22 09:06:03;;;;;;;;;;;;;;;18.78;57.78;98034.59;5029164;28;19976;-66
2023/07/22 09:08:52;;;;;;;;;;;;;;;18.80;55.89;98037.78;5024071;28;19948;-65
2023/07/22 09:11:40;;;;;;;;;;;;;;;18.84;55.55;98035.88;5019305;28;20056;-64
2023/07/22 09:14:29;;;;;;;;;;;;;;;18.91;56.13;98032.50;5030632;28;19929;-64
2023/07/22 09:17:24;;;;;;;;;;;;;;;18.99;55.39;98033.41;5025276;28;20478;-64
2023/07/22 09:20:14;;;;;;;;;;;;;;;19.11;54.81;98028.53;5026613;28;19925;-64
2023/07/22 09:23:05;;;;;;;;;;;;;;;19.17;53.00;98019.97;5020320;28;20036;-66
2023/07/22 09:26:09;;;;;;;;;;;;;;;19.31;54.27;98026.56;5025325;28;19928;-64
2023/07/22 09:28:58;;;;;;;;;;;;;;;19.54;53.69;98026.56;5019996;28;20310;-64
2023/07/22 09:31:49;;;;;;;;;;;;;;;19.35;51.34;98024.66;5024872;28;19929;-65
2023/07/22 09:34:39;;;;;;;;;;;;;;;19.47;51.82;98014.63;5024371;28;19929;-64
2023/07/22 09:37:32;;;;;;;;;;;;;;;19.54;50.97;98003.72;5033059;28;19929;-64
2023/07/22 09:40:22;;;;;;;;;;;;;;;19.66;50.87;98009.09;5016018;28;19937;-64
2023/07/22 09:43:11;;;;;;;;;;;;;;;19.71;50.78;98003.28;5026802;28;19929;-64
2023/07/22 09:46:06;;;;;;;;;;;;;;;19.82;50.07;98004.22;5020871;28;19933;-64
2023/07/22 09:49:05;;;;;;;;;;;;;;;19.92;49.87;97990.97;5030846;28;19931;-64
2023/07/22 09:51:55;;;;;;;;;;;;;;;20.08;49.17;97992.41;5029081;28;19929;-64
2023/07/22 09:54:50;;;;;;;;;;;;;;;20.11;49.59;97990.84;5028177;28;20012;-65
2023/07/22 09:57:39;;;;;;;;;;;;;;;20.20;48.77;97980.34;5024451;28;19925;-64
2023/07/22 10:00:29;;;;;;;;;;;;;;;20.19;50.74;97986.22;5027016;28;19925;-64
2023/07/22 10:03:20;;;;;;;;;;;;;;;20.12;48.60;97984.16;5025359;28;20027;-64
2023/07/22 10:06:08;;;;;;;;;;;;;;;20.03;49.38;97981.69;5019685;28;19994;-64
2023/07/22 10:08:58;;;;;;;;;;;;;;;20.12;47.69;97968.41;5031839;28;20275;-64
2023/07/22 10:11:47;;;;;;;;;;;;;;;19.99;47.32;97971.78;5025635;28;19938;-64
2023/07/22 10:14:35;;;;;;;;;;;;;;;20.03;46.66;97972.63;5023024;28;19929;-65
2023/07/22 10:17:25;;;;;;;;;;;;;;;20.13;48.08;97969.22;5023301;28;19933;-65
2023/07/22 10:20:15;;;;;;;;;;;;;;;20.26;49.14;97967.81;5026319;28;20018;-64
2023/07/22 10:23:04;;;;;;;;;;;;;;;20.16;46.56;97968.47;5016827;28;20620;-65
2023/07/22 10:25:54;;;;;;;;;;;;;;;20.14;46.83;97962.53;5019217;28;19940;-64
2023/07/22 10:28:43;;;;;;;;;;;;;;;20.07;47.24;97965.19;5018489;28;19933;-66
2023/07/22 10:31:31;;;;;;;;;;;;;;;20.07;47.18;97959.66;5023252;28;19950;-64
2023/07/22 10:34:21;;;;;;;;;;;;;;;20.00;47.92;97959.56;5036961;28;19926;-65
2023/07/22 10:37:10;;;;;;;;;;;;;;;20.06;47.79;97958.09;5019563;28;20431;-64
2023/07/22 10:40:02;;;;;;;;;;;;;;;20.00;48.28;97967.84;5024827;28;20322;-64
2023/07/22 10:42:55;;;;;;;;;;;;;;;19.93;48.37;97968.56;5026730;28;19937;-64
2023/07/22 10:45:43;;;;;;;;;;;;;;;19.89;49.04;97968.50;5023203;28;20306;-64
2023/07/22 10:48:35;;;;;;;;;;;;;;;19.99;48.33;97963.50;5013918;28;19929;-64
2023/07/22 10:51:23;;;;;;;;;;;;;;;20.08;48.06;97964.84;5015629;28;20695;-64
2023/07/22 10:54:11;;;;;;;;;;;;;;;20.14;47.68;97955.06;5014880;28;19929;-66
2023/07/22 10:57:05;;;;;;;;;;;;;;;20.05;47.95;97959.25;5015412;28;19929;-68
2023/07/22 10:59:56;;;;;;;;;;;;;;;20.07;47.84;97959.66;5021264;28;19929;-64
2023/07/22 11:02:44;;;;;;;;;;;;;;;20.02;47.75;97957.22;5010289;28;20773;-64
2023/07/22 11:05:47;;;;;;;;;;;;;;;20.14;48.54;97959.78;5014469;28;19933;-64
2023/07/22 11:08:36;;;;;;;;;;;;;;;20.23;46.92;97951.22;5023534;28;20821;-65
2023/07/22 11:11:34;;;;;;;;;;;;;;;20.38;49.12;97945.50;5020524;28;19932;-64
2023/07/22 11:14:22;;;;;;;;;;;;;;;20.45;46.11;97941.25;5019447;28;20303;-65
2023/07/22 11:17:12;;;;;;;;;;;;;;;20.54;47.56;97944.53;5023765;28;19933;-65
2023/07/22 11:20:00;;;;;;;;;;;;;;;20.63;48.79;97943.09;5024228;28;20035;-63
2023/07/22 11:22:48;;;;;;;;;;;;;;;20.67;46.35;97943.94;5020734;28;19929;-63
2023/07/22 11:25:37;;;;;;;;;;;;;;;20.64;44.78;97941.91;5017085;28;20032;-65
2023/07/22 11:28:25;;;;;;;;;;;;;;;20.85;47.80;97935.84;5021191;28;20051;-65
2023/07/22 11:31:13;;;;;;;;;;;;;;;21.09;47.02;97933.69;5021006;28;19933;-67
2023/07/22 11:34:03;;;;;;;;;;;;;;;21.10;48.81;97933.34;5015053;28;19929;-64
2023/07/22 11:36:52;;;;;;;;;;;;;;;21.16;44.55;97926.28;5021493;28;19933;-64
2023/07/22 11:39:41;;;;;;;;;;;;;;;21.20;44.31;97926.31;5018194;28;19933;-65
2023/07/22 11:42:30;;;;;;;;;;;;;;;21.26;46.89;97919.25;5023954;28;20023;-65
2023/07/22 11:45:18;;;;;;;;;;;;;;;21.33;47.32;97919.34;5023811;28;19925;-65
2023/07/22 11:48:09;;;;;;;;;;;;;;;21.22;44.20;97918.44;5018619;28;19939;-64
2023/07/22 11:51:00;;;;;;;;;;;;;;;21.26;45.01;97910.19;5020050;28;19933;-66
2023/07/22 11:53:50;;;;;;;;;;;;;;;21.20;45.46;97915.28;5011313;28;19932;-66
2023/07/22 11:56:38;;;;;;;;;;;;;;;21.25;45.20;97909.38;5022648;28;19932;-66
2023/07/22 11:59:36;;;;;;;;;;;;;;;21.21;43.68;97914.09;5024427;28;20362;-66
2023/07/22 12:02:24;;;;;;;;;;;;;;;21.22;44.94;97901.84;5022483;28;19937;-67
2023/07/22 12:05:13;;;;;;;;;;;;;;;21.19;43.28;97897.06;5023309;28;19936;-65
2023/07/22 12:08:03;;;;;;;;;;;;;;;21.32;44.38;97898.41;5026335;28;20397;-65
2023/07/22 12:10:56;;;;;;;;;;;;;;;21.34;43.86;97898.03;5015026;28;19930;-65
2023/07/22 12:13:46;;;;;;;;;;;;;;;21.26;42.99;97888.88;5024276;28;20294;-65
2023/07/22 12:16:35;;;;;;;;;;;;;;;21.37;43.13;97881.47;5022277;28;20375;-66
2023/07/22 12:19:23;;;;;;;;;;;;;;;21.40;42.94;97877.94;5019349;28;19980;-66
2023/07/22 12:22:11;;;;;;;;;;;;;;;21.51;42.71;97875.25;5021760;28;19944;-64
2023/07/22 12:25:01;;;;;;;;;;;;;;;21.53;43.21;97880.41;5023528;28;20383;-67
2023/07/22 12:27:52;;;;;;;;;;;;;;;21.69;45.44;97876.19;5015251;28;20310;-66
2023/07/22 12:30:41;;;;;;;;;;;;;;;21.70;44.82;97861.16;5021966;28;19936;-65
2023/07/22 12:33:29;;;;;;;;;;;;;;;21.84;43.93;97860.47;5017239;28;19925;-66
2023/07/22 12:36:17;;;;;;;;;;;;;;;21.80;44.44;97856.09;5022530;28;19936;-65
2023/07/22 12:39:06;;;;;;;;;;;;;;;21.58;42.79;97857.94;5016382;28;19929;-66
2023/07/22 12:41:55;;;;;;;;;;;;;;;21.49;42.77;97849.97;5017319;28;19941;-66
2023/07/22 12:44:44;;;;;;;;;;;;;;;21.40;43.13;97852.28;5012561;28;19933;-66
2023/07/22 12:47:32;;;;;;;;;;;;;;;21.45;42.39;97851.91;5016168;28;19941;-66
2023/07/22 12:50:20;;;;;;;;;;;;;;;21.48;42.42;97842.09;5018429;28;20286;-66
2023/07/22 12:53:09;;;;;;;;;;;;;;;21.53;42.51;97839.75;5020425;28;20051;-68
2023/07/22 12:55:59;;;;;;;;;;;;;;;21.41;42.90;97838.09;5024769;28;19925;-68
2023/07/22 12:58:49;;;;;;;;;;;;;;;21.47;43.58;97834.97;5025974;28;20500;-66
2023/07/22 13:01:41;;;;;;;;;;;;;;;21.47;42.46;97834.97;5023039;28;20375;-66
2023/07/22 13:04:29;;;;;;;;;;;;;;;21.55;43.31;97833.81;5022886;28;19932;-66
2023/07/22 13:07:18;;;;;;;;;;;;;;;21.50;42.27;97834.19;5023893;28;19952;-65
2023/07/22 13:10:10;;;;;;;;;;;;;;;21.58;44.01;97830.31;5021944;28;19925;-65
2023/07/22 13:12:59;;;;;;;;;;;;;;;21.74;42.76;97827.22;5019526;28;19925;-67
2023/07/22 13:15:48;;;;;;;;;;;;;;;21.81;43.44;97819.75;5022866;28;19936;-68
2023/07/22 13:18:36;;;;;;;;;;;;;;;21.79;42.01;97819.34;5017256;28;19933;-67
2023/07/22 13:21:24;;;;;;;;;;;;;;;21.92;42.48;97817.81;5022722;28;20394;-66
2023/07/22 13:24:14;;;;;;;;;;;;;;;22.04;41.11;97807.59;5031895;28;20405;-67
2023/07/22 13:27:02;;;;;;;;;;;;;;;22.01;41.04;97811.16;5022201;28;19929;-69
2023/07/22 13:29:50;;;;;;;;;;;;;;;21.96;41.23;97813.09;5019757;28;19926;-65
2023/07/22 13:32:40;;;;;;;;;;;;;;;21.99;42.44;97811.53;5030264;28;19932;-66
2023/07/22 13:35:28;;;;;;;;;;;;;;;22.01;41.97;97808.38;5023258;28;19929;-65
2023/07/22 13:38:17;;;;;;;;;;;;;;;22.00;42.58;97804.00;5021179;28;19940;-67
2023/07/22 13:41:06;;;;;;;;;;;;;;;22.04;42.20;97796.53;5023328;28;19979;-66
2023/07/22 13:43:54;;;;;;;;;;;;;;;22.00;41.27;97791.00;5021804;28;20531;-66
2023/07/22 13:46:42;;;;;;;;;;;;;;;22.07;40.90;97801.28;5013702;28;19999;-65
2023/07/22 13:49:32;;;;;;;;;;;;;;;22.04;40.94;97804.81;5027626;28;19932;-65
2023/07/22 13:52:20;;;;;;;;;;;;;;;22.03;42.05;97804.03;5021091;28;19925;-65
2023/07/22 13:55:09;;;;;;;;;;;;;;;22.00;40.96;97807.59;5027709;28;20466;-66
2023/07/22 13:57:57;;;;;;;;;;;;;;;22.00;43.63;97807.59;5022319;28;19925;-66
2023/07/22 14:00:46;;;;;;;;;;;;;;;21.94;40.89;97801.66;5028841;28;19933;-67
2023/07/22 14:03:34;;;;;;;;;;;;;;;21.89;41.54;97804.78;5022794;28;20028;-66
2023/07/22 14:06:24;;;;;;;;;;;;;;;21.88;42.03;97805.16;5020878;28;19936;-66
2023/07/22 14:09:12;;;;;;;;;;;;;;;21.81;41.28;97805.91;5024857;28;20398;-67
2023/07/22 14:12:00;;;;;;;;;;;;;;;21.89;42.67;97802.03;5020104;28;19936;-65
2023/07/22 14:14:49;;;;;;;;;;;;;;;21.89;41.74;97790.97;5026521;28;19929;-66
2023/07/22 14:17:38;;;;;;;;;;;;;;;21.94;42.70;97796.13;5019161;28;19976;-65
2023/07/22 14:20:26;;;;;;;;;;;;;;;21.97;43.32;97795.31;5027646;28;19933;-65
2023/07/22 14:23:16;;;;;;;;;;;;;;;22.04;41.26;97796.53;5017312;28;19943;-65
2023/07/22 14:26:04;;;;;;;;;;;;;;;22.01;41.56;97800.88;5023028;28;19929;-66
2023/07/22 14:28:52;;;;;;;;;;;;;;;22.03;41.44;97789.41;5016154;28;19925;-65
2023/07/22 14:31:42;;;;;;;;;;;;;;;22.02;41.33;97793.38;5025344;28;19924;-65
2023/07/22 14:34:30;;;;;;;;;;;;;;;22.11;41.08;97793.84;5025398;28;19925;-66
2023/07/22 14:37:19;;;;;;;;;;;;;;;22.18;40.58;97785.53;5022849;28;19925;-65
2023/07/22 14:40:12;;;;;;;;;;;;;;;22.25;42.65;97780.00;5025139;28;20362;-66
2023/07/22 14:43:00;;;;;;;;;;;;;;;22.33;40.11;97781.63;5025023;28;20019;-65